Time;durP1;ratioP1;P1;durP2;ratioP2;P2;SDS_P1;SDS_P2;PMS_P1;PMS_P2;Temp;Humidity;BMP_temperature;BMP_pressure;BME280_temperature;BME280_humidity;BME280_pressure;Samples;Min_cycle;Max_cycle;Signal;HPM_P1;HPM_P2
2021/07/16 00:01:37;;;;;;;6.70;4.85;;;15.00;99.90;;;;;;5052444;28;20108;-65
2021/07/16 00:04:03;;;;;;;4.63;4.22;;;15.00;99.90;;;;;;5051858;28;20032;-65
2021/07/16 00:06:29;;;;;;;7.43;4.28;;;14.90;99.90;;;;;;5050658;28;20478;-65
2021/07/16 00:08:54;;;;;;;4.38;3.75;;;14.90;99.90;;;;;;5051210;28;20035;-65
2021/07/16 00:11:20;;;;;;;7.18;4.15;;;14.90;99.90;;;;;;5050573;28;20032;-65
2021/07/16 00:13:46;;;;;;;5.55;4.28;;;14.80;99.90;;;;;;5051050;28;20592;-64
2021/07/16 00:16:11;;;;;;;4.78;4.30;;;14.80;99.90;;;;;;5051276;28;20158;-68
2021/07/16 00:18:37;;;;;;;5.43;4.25;;;14.80;99.90;;;;;;5050799;28;20029;-65
2021/07/16 00:21:04;;;;;;;4.65;4.25;;;14.70;99.90;;;;;;5050063;28;20112;-64
2021/07/16 00:23:30;;;;;;;4.85;4.43;;;14.70;99.90;;;;;;5050765;28;20466;-64
2021/07/16 00:25:57;;;;;;;4.45;3.88;;;14.70;99.90;;;;;;5050733;28;20090;-65
2021/07/16 00:28:23;;;;;;;4.68;4.30;;;14.70;99.90;;;;;;5050922;28;20013;-65
2021/07/16 00:30:50;;;;;;;6.10;4.35;;;14.60;99.90;;;;;;5051703;28;20425;-65
2021/07/16 00:33:16;;;;;;;4.72;4.32;;;14.60;99.90;;;;;;5050768;28;20056;-65
2021/07/16 00:35:42;;;;;;;5.03;4.35;;;14.60;99.90;;;;;;5051489;28;20152;-64
2021/07/16 00:38:07;;;;;;;5.90;4.47;;;14.50;99.90;;;;;;5051449;28;20041;-65
2021/07/16 00:40:33;;;;;;;5.47;4.80;;;14.50;99.90;;;;;;5050407;28;20053;-64
2021/07/16 00:42:59;;;;;;;7.90;5.80;;;14.50;99.90;;;;;;5051322;28;20032;-64
2021/07/16 00:45:25;;;;;;;6.18;5.57;;;14.50;99.90;;;;;;5050141;28;20055;-65
2021/07/16 00:47:51;;;;;;;5.97;5.47;;;14.60;99.90;;;;;;5050612;28;20494;-64
2021/07/16 00:50:22;;;;;;;5.50;4.97;;;14.60;99.90;;;;;;5049944;28;20466;-65
2021/07/16 00:52:48;;;;;;;5.03;4.53;;;14.60;99.90;;;;;;5050944;28;20021;-64
2021/07/16 00:55:16;;;;;;;8.65;5.75;;;14.60;99.90;;;;;;5050283;28;20107;-65
2021/07/16 00:57:42;;;;;;;6.20;5.28;;;14.60;99.90;;;;;;5050868;28;20033;-64
2021/07/16 01:00:10;;;;;;;9.07;5.70;;;14.60;99.90;;;;;;5051276;28;20040;-64
2021/07/16 01:02:37;;;;;;;5.68;5.13;;;14.60;99.90;;;;;;5050139;28;20036;-64
2021/07/16 01:05:07;;;;;;;6.50;5.20;;;14.60;99.90;;;;;;5049941;28;20364;-65
2021/07/16 01:07:33;;;;;;;;;;;14.60;99.90;;;;;;5050600;28;20033;-64
2021/07/16 01:10:00;;;;;;;7.05;5.07;;;14.60;99.90;;;;;;5050562;28;19904;-65
2021/07/16 01:12:28;;;;;;;5.85;5.32;;;14.70;99.90;;;;;;5050279;28;20074;-65
2021/07/16 01:14:53;;;;;;;4.53;4.13;;;14.60;99.90;;;;;;5050475;28;20452;-64
2021/07/16 01:17:19;;;;;;;5.65;5.15;;;14.70;99.90;;;;;;5053187;28;20037;-65
2021/07/16 01:20:00;;;;;;;6.18;5.53;;;14.60;99.90;;;;;;5054845;28;20056;-65
2021/07/16 01:22:31;;;;;;;6.43;5.47;;;14.70;99.90;;;;;;5054437;28;20029;-64
2021/07/16 01:24:59;;;;;;;5.80;5.30;;;14.70;99.90;;;;;;5054604;28;20483;-65
2021/07/16 01:27:25;;;;;;;7.13;5.03;;;14.70;99.90;;;;;;5053194;28;20044;-65
2021/07/16 01:29:51;;;;;;;6.95;5.32;;;14.70;99.90;;;;;;5054662;28;20159;-64
2021/07/16 01:32:18;;;;;;;7.05;5.40;;;14.70;99.90;;;;;;5054042;28;20359;-65
2021/07/16 01:34:44;;;;;;;5.72;4.85;;;14.80;99.90;;;;;;5055061;28;20036;-64
2021/07/16 01:37:10;;;;;;;7.13;4.95;;;14.70;99.90;;;;;;5054623;28;20394;-64
2021/07/16 01:39:38;;;;;;;5.60;5.00;;;14.70;99.90;;;;;;5053582;28;20024;-65
2021/07/16 01:42:08;;;;;;;5.95;5.40;;;14.80;99.90;;;;;;5054105;28;20398;-65
2021/07/16 01:44:36;;;;;;;6.80;5.30;;;14.80;99.90;;;;;;5053437;28;20190;-65
2021/07/16 01:47:02;;;;;;;5.53;4.82;;;14.80;99.90;;;;;;5054710;28;20029;-65
2021/07/16 01:49:28;;;;;;;6.53;5.60;;;14.80;99.90;;;;;;5053710;28;20029;-65
2021/07/16 01:51:54;;;;;;;5.32;4.82;;;14.80;99.90;;;;;;5054259;28;20166;-65
2021/07/16 01:54:20;;;;;;;6.10;5.50;;;14.80;99.90;;;;;;5053516;28;20029;-64
2021/07/16 01:56:46;;;;;;;5.90;5.30;;;14.80;99.90;;;;;;5053613;28;20122;-64
2021/07/16 01:59:12;;;;;;;6.78;5.28;;;14.80;99.90;;;;;;5054006;28;20383;-65
2021/07/16 02:01:38;;;;;;;6.75;6.05;;;14.80;99.90;;;;;;5053828;28;20025;-65
2021/07/16 02:04:04;;;;;;;6.07;5.53;;;14.80;99.90;;;;;;5053961;28;20033;-65
2021/07/16 02:06:30;;;;;;;7.07;6.40;;;14.90;99.90;;;;;;5053023;28;20040;-65
2021/07/16 02:08:57;;;;;;;7.22;6.57;;;14.90;99.90;;;;;;5053943;28;20409;-65
2021/07/16 02:11:23;;;;;;;8.93;7.38;;;14.90;99.90;;;;;;5053106;28;20037;-65
2021/07/16 02:13:50;;;;;;;7.82;6.85;;;14.90;99.90;;;;;;5053869;28;20017;-65
2021/07/16 02:16:17;;;;;;;8.10;7.18;;;14.80;99.90;;;;;;5052323;28;20032;-66
2021/07/16 02:18:50;;;;;;;8.13;7.32;;;14.80;99.90;;;;;;5053548;28;20108;-65
2021/07/16 02:21:16;;;;;;;7.75;6.78;;;14.80;99.90;;;;;;5053421;28;20033;-65
2021/07/16 02:23:43;;;;;;;9.55;7.90;;;14.90;99.90;;;;;;5053827;28;20025;-64
2021/07/16 02:26:09;;;;;;;9.45;6.57;;;14.80;99.90;;;;;;5053448;28;20071;-65
2021/07/16 02:28:34;;;;;;;6.72;6.13;;;14.80;99.90;;;;;;5051823;28;20788;-64
2021/07/16 02:31:05;;;;;;;6.72;5.78;;;14.80;99.90;;;;;;5054090;28;20092;-64
2021/07/16 02:33:32;;;;;;;9.55;7.38;;;14.80;99.90;;;;;;5052773;28;20031;-64
2021/07/16 02:35:57;;;;;;;7.95;7.15;;;14.80;99.90;;;;;;5052974;28;20044;-65
2021/07/16 02:38:23;;;;;;;8.68;7.88;;;14.80;99.90;;;;;;5053020;28;20037;-65
2021/07/16 02:40:51;;;;;;;8.82;7.95;;;14.80;99.90;;;;;;5053729;28;20021;-65
2021/07/16 02:43:16;;;;;;;9.32;7.80;;;14.80;99.90;;;;;;5052706;28;20074;-66
2021/07/16 02:45:44;;;;;;;9.32;7.93;;;14.80;99.90;;;;;;5052974;28;20029;-65
2021/07/16 02:48:09;;;;;;;10.10;7.90;;;14.80;99.90;;;;;;5053596;28;20528;-65
2021/07/16 02:50:37;;;;;;;10.18;6.88;;;14.80;99.90;;;;;;5052213;28;20025;-65
2021/07/16 02:53:15;;;;;;;7.82;7.03;;;14.80;99.90;;;;;;5052966;28;20104;-65
2021/07/16 02:55:41;;;;;;;7.35;6.65;;;14.80;99.90;;;;;;5051949;28;20509;-64
2021/07/16 02:58:08;;;;;;;11.55;8.30;;;14.80;99.90;;;;;;5052949;28;20085;-65
2021/07/16 03:00:35;;;;;;;8.65;7.75;;;14.80;99.90;;;;;;5052384;28;20017;-64
2021/07/16 03:03:02;;;;;;;8.90;6.57;;;14.80;99.90;;;;;;5053355;28;20032;-64
2021/07/16 03:05:30;;;;;;;11.88;7.78;;;14.80;99.90;;;;;;5051455;28;20076;-65
2021/07/16 03:07:59;;;;;;;9.43;7.45;;;14.80;99.90;;;;;;5052650;28;20036;-64
2021/07/16 03:10:38;;;;;;;7.03;5.93;;;14.80;99.90;;;;;;5051919;28;20025;-65
2021/07/16 03:13:06;;;;;;;9.02;5.90;;;14.80;99.90;;;;;;5051466;28;20379;-65
2021/07/16 03:15:32;;;;;;;7.80;7.10;;;14.80;99.90;;;;;;5044000;28;20043;-65
2021/07/16 03:17:58;;;;;;;10.63;7.05;;;14.80;99.90;;;;;;5052700;28;20398;-65
2021/07/16 03:20:32;;;;;;;7.80;6.88;;;14.80;99.90;;;;;;5051811;28;20060;-65
2021/07/16 03:22:58;;;;;;;7.65;6.10;;;14.90;99.90;;;;;;5044525;28;20040;-64
2021/07/16 03:25:27;;;;;;;6.68;6.05;;;14.90;99.90;;;;;;5051821;28;20037;-65
2021/07/16 03:27:54;;;;;;;8.45;6.25;;;14.90;99.90;;;;;;5052325;28;20037;-64
2021/07/16 03:30:26;;;;;;;7.97;6.72;;;14.90;99.90;;;;;;5051762;28;20489;-65
2021/07/16 03:32:52;;;;;;;6.68;5.65;;;14.90;99.90;;;;;;5052344;28;20474;-64
2021/07/16 03:35:19;;;;;;;6.45;5.65;;;14.90;99.90;;;;;;5052191;28;20111;-66
2021/07/16 03:37:45;;;;;;;6.03;5.47;;;14.90;99.90;;;;;;5051825;28;20070;-64
2021/07/16 03:40:14;;;;;;;6.45;5.60;;;14.90;99.90;;;;;;5052213;28;20071;-64
2021/07/16 03:42:40;;;;;;;6.90;5.43;;;14.90;99.90;;;;;;5051765;28;20017;-65
2021/07/16 03:45:12;;;;;;;5.60;4.75;;;14.90;99.90;;;;;;5043767;28;20024;-65
2021/07/16 03:47:37;;;;;;;6.05;4.95;;;15.00;99.90;;;;;;5051314;28;20048;-64
2021/07/16 03:50:04;;;;;;;7.78;5.60;;;15.00;99.90;;;;;;5052559;28;20040;-65
2021/07/16 03:52:29;;;;;;;8.15;5.63;;;15.00;99.90;;;;;;5050509;28;20025;-65
2021/07/16 03:54:55;;;;;;;7.60;5.80;;;15.00;99.90;;;;;;5051408;28;20367;-64
2021/07/16 03:57:20;;;;;;;6.75;6.15;;;15.00;99.90;;;;;;5050729;28;20098;-65
2021/07/16 03:59:47;;;;;;;6.50;5.90;;;15.00;99.90;;;;;;5050581;28;20385;-65
2021/07/16 04:02:12;;;;;;;6.93;6.32;;;15.00;99.90;;;;;;5051189;28;20028;-65
2021/07/16 04:04:38;;;;;;;7.30;6.60;;;15.10;99.90;;;;;;5049382;28;20486;-64
2021/07/16 04:07:06;;;;;;;7.18;6.47;;;15.00;99.90;;;;;;5050773;28;20055;-64
2021/07/16 04:09:32;;;;;;;5.57;5.07;;;15.10;99.90;;;;;;5050652;28;20021;-64
2021/07/16 04:12:06;;;;;;;7.70;6.43;;;15.10;99.90;;;;;;5051960;28;20064;-65
2021/07/16 04:14:34;;;;;;;8.10;6.93;;;15.10;99.90;;;;;;5050703;28;20029;-65
2021/07/16 04:17:00;;;;;;;10.02;7.22;;;15.20;99.90;;;;;;5044842;28;20485;-65
2021/07/16 04:19:25;;;;;;;7.20;6.50;;;15.30;99.90;;;;;;5050422;28;20064;-65
2021/07/16 04:21:51;;;;;;;5.90;5.38;;;15.30;99.90;;;;;;5051683;28;20067;-64
2021/07/16 04:24:16;;;;;;;5.35;4.80;;;15.30;99.90;;;;;;5051533;28;20052;-64
2021/07/16 04:26:42;;;;;;;6.28;5.68;;;15.40;99.90;;;;;;5050801;28;20522;-64
2021/07/16 04:29:08;;;;;;;6.55;4.88;;;15.40;99.90;;;;;;5050299;28;20494;-64
2021/07/16 04:31:33;;;;;;;8.68;5.50;;;15.40;99.90;;;;;;5050318;28;20037;-64
2021/07/16 04:33:59;;;;;;;5.88;5.15;;;15.40;99.90;;;;;;5051213;28;20108;-64
2021/07/16 04:36:24;;;;;;;8.68;5.97;;;15.40;99.90;;;;;;5050616;28;20064;-65
2021/07/16 04:38:50;;;;;;;6.53;5.85;;;15.40;99.90;;;;;;5050175;28;20060;-64
2021/07/16 04:41:16;;;;;;;10.45;5.95;;;15.40;99.90;;;;;;5051093;28;20033;-64
2021/07/16 04:43:41;;;;;;;6.97;6.25;;;15.40;99.90;;;;;;5050281;28;20621;-65
2021/07/16 04:46:07;;;;;;;7.57;5.78;;;15.40;99.90;;;;;;5050730;28;20383;-65
2021/07/16 04:48:32;;;;;;;6.00;5.40;;;15.50;99.90;;;;;;5050560;28;20071;-64
2021/07/16 04:50:58;;;;;;;7.03;6.05;;;15.50;99.90;;;;;;5051012;28;20032;-64
2021/07/16 04:53:24;;;;;;;6.18;5.32;;;15.50;99.90;;;;;;5050517;28;20481;-65
2021/07/16 04:55:49;;;;;;;9.15;6.20;;;15.60;99.90;;;;;;5050611;28;20518;-65
2021/07/16 04:58:15;;;;;;;6.93;6.20;;;15.60;99.90;;;;;;5051025;28;20029;-64
2021/07/16 05:00:40;;;;;;;6.38;5.78;;;15.70;99.90;;;;;;5050137;28;20009;-64
2021/07/16 05:03:06;;;;;;;5.93;5.30;;;15.70;99.90;;;;;;5050721;28;20116;-65
2021/07/16 05:05:32;;;;;;;8.43;6.43;;;15.70;99.90;;;;;;5050648;28;20056;-65
2021/07/16 05:07:57;;;;;;;7.47;5.85;;;15.70;99.90;;;;;;5050786;28;20037;-65
2021/07/16 05:10:23;;;;;;;6.20;5.57;;;15.80;99.90;;;;;;5050660;28;20037;-65
2021/07/16 05:12:49;;;;;;;10.30;6.82;;;15.90;99.90;;;;;;5050930;28;20032;-64
2021/07/16 05:15:14;;;;;;;8.60;6.65;;;16.00;99.90;;;;;;5050602;28;20041;-64
2021/07/16 05:17:40;;;;;;;7.03;6.07;;;16.00;99.90;;;;;;5049891;28;20813;-64
2021/07/16 05:20:07;;;;;;;6.82;6.13;;;16.10;99.90;;;;;;5050838;28;20107;-64
2021/07/16 05:22:33;;;;;;;8.07;5.93;;;16.20;99.90;;;;;;5050096;28;20036;-64
2021/07/16 05:24:59;;;;;;;6.78;6.07;;;16.30;99.90;;;;;;5050700;28;20025;-63
2021/07/16 05:27:25;;;;;;;6.35;5.15;;;16.40;99.90;;;;;;5050054;28;20029;-64
2021/07/16 05:29:51;;;;;;;9.10;6.13;;;16.40;99.90;;;;;;5050353;28;20024;-64
2021/07/16 05:32:16;;;;;;;8.07;5.43;;;16.40;99.90;;;;;;5050264;28;20029;-64
2021/07/16 05:34:42;;;;;;;6.65;5.78;;;16.40;99.90;;;;;;5049600;28;20029;-64
2021/07/16 05:37:08;;;;;;;9.57;6.57;;;16.40;99.90;;;;;;5044816;28;20036;-64
2021/07/16 05:39:33;;;;;;;11.48;7.53;;;16.40;99.90;;;;;;5049589;28;20032;-64
2021/07/16 05:42:03;;;;;;;11.50;8.38;;;16.40;99.90;;;;;;5049968;28;20057;-69
2021/07/16 05:44:29;;;;;;;15.98;10.20;;;16.40;99.90;;;;;;5049490;28;20028;-78
2021/07/16 05:46:55;;;;;;;13.85;10.32;;;16.50;99.90;;;;;;5050259;28;20029;-82
2021/07/16 05:49:20;;;;;;;12.00;9.25;;;16.50;99.90;;;;;;5050538;28;20036;-82
2021/07/16 05:51:46;;;;;;;14.23;10.13;;;16.60;99.90;;;;;;5048582;28;20256;-82
2021/07/16 05:54:11;;;;;;;12.23;9.43;;;16.60;99.90;;;;;;5049579;28;20114;-83
2021/07/16 05:56:40;;;;;;;13.25;9.20;;;16.70;99.90;;;;;;5049858;28;20167;-83
2021/07/16 05:59:09;;;;;;;13.85;9.80;;;16.80;99.90;;;;;;5050183;28;20044;-79
2021/07/16 06:01:35;;;;;;;16.27;11.00;;;17.00;99.90;;;;;;5048183;28;20476;-82
2021/07/16 06:04:09;;;;;;;15.43;10.27;;;17.20;99.90;;;;;;5053143;28;20052;-85
2021/07/16 06:06:35;;;;;;;13.70;10.13;;;17.30;99.90;;;;;;5053798;28;20390;-85
2021/07/16 06:09:01;;;;;;;14.07;10.85;;;17.30;99.90;;;;;;5053280;28;20029;-87
2021/07/16 06:11:26;;;;;;;19.63;10.13;;;17.30;99.90;;;;;;5052619;28;20032;-79
2021/07/16 06:13:52;;;;;;;14.65;10.52;;;17.30;99.90;;;;;;5052855;28;20029;-86
2021/07/16 06:16:18;;;;;;;12.80;10.20;;;17.30;99.90;;;;;;5053995;28;20047;-85
2021/07/16 06:18:43;;;;;;;15.60;11.02;;;17.30;99.90;;;;;;5053666;28;20029;-85
2021/07/16 06:21:09;;;;;;;12.68;9.93;;;17.30;99.90;;;;;;5054776;28;20059;-85
2021/07/16 06:23:35;;;;;;;13.10;9.60;;;17.30;99.90;;;;;;5054359;28;20025;-84
2021/07/16 06:26:00;;;;;;;13.13;10.13;;;17.40;99.90;;;;;;5055250;28;20039;-82
2021/07/16 06:28:26;;;;;;;10.23;8.95;;;17.50;99.90;;;;;;5054382;28;20021;-82
2021/07/16 06:30:51;;;;;;;15.80;9.85;;;17.50;99.90;;;;;;5052139;28;20032;-85
2021/07/16 06:33:17;;;;;;;11.65;8.68;;;17.50;99.90;;;;;;5054207;28;20024;-85
2021/07/16 06:35:43;;;;;;;13.77;10.20;;;17.60;99.90;;;;;;5051823;28;20044;-85
2021/07/16 06:38:09;;;;;;;14.93;10.68;;;17.70;99.90;;;;;;5053281;28;20037;-85
2021/07/16 06:40:34;;;;;;;13.98;9.63;;;17.70;99.90;;;;;;5051773;28;20021;-79
2021/07/16 06:43:06;;;;;;;13.18;8.40;;;17.60;99.90;;;;;;5051205;28;20467;-84
2021/07/16 06:45:32;;;;;;;13.70;10.35;;;17.70;99.90;;;;;;5049729;28;20041;-81
2021/07/16 06:47:57;;;;;;;15.32;9.63;;;17.90;99.90;;;;;;5051821;28;20048;-85
2021/07/16 06:50:23;;;;;;;8.85;7.95;;;18.10;99.90;;;;;;5050901;28;20360;-84
2021/07/16 06:52:49;;;;;;;13.88;9.38;;;18.30;99.90;;;;;;5052636;28;20028;-82
2021/07/16 06:55:14;;;;;;;9.15;7.47;;;18.50;99.90;;;;;;5051509;28;20563;-85
2021/07/16 06:57:41;;;;;;;10.65;9.02;;;18.80;99.90;;;;;;5052045;28;20052;-84
2021/07/16 07:00:08;;;;;;;16.35;9.05;;;18.90;99.90;;;;;;5050076;28;20079;-83
2021/07/16 07:02:34;;;;;;;9.27;8.05;;;19.00;99.90;;;;;;5050613;28;20039;-83
2021/07/16 07:05:00;;;;;;;10.40;8.60;;;19.00;99.90;;;;;;5051187;28;20120;-85
2021/07/16 07:07:25;;;;;;;13.32;7.90;;;19.10;99.90;;;;;;5051116;28;20025;-86
2021/07/16 07:09:51;;;;;;;11.05;8.35;;;19.20;99.90;;;;;;5051463;28;20029;-84
2021/07/16 07:12:17;;;;;;;11.60;8.27;;;19.30;99.90;;;;;;5052878;28;20025;-84
2021/07/16 07:14:42;;;;;;;10.40;8.15;;;19.40;99.90;;;;;;5047984;28;20078;-67
2021/07/16 07:17:08;;;;;;;8.88;7.97;;;19.40;99.90;;;;;;5052677;28;20116;-64
2021/07/16 07:19:33;;;;;;;10.07;7.40;;;19.30;99.90;;;;;;5052004;28;20517;-65
2021/07/16 07:21:59;;;;;;;10.65;7.85;;;19.30;99.90;;;;;;5052959;28;20030;-65
2021/07/16 07:24:25;;;;;;;8.43;7.28;;;19.20;99.90;;;;;;5052776;28;20131;-65
2021/07/16 07:26:54;;;;;;;7.90;7.10;;;19.20;99.90;;;;;;5049534;28;20104;-65
2021/07/16 07:29:20;;;;;;;7.93;7.13;;;19.20;99.90;;;;;;5051453;28;20029;-64
2021/07/16 07:31:46;;;;;;;8.45;7.13;;;19.20;99.90;;;;;;5051247;28;20033;-64
2021/07/16 07:34:12;;;;;;;10.30;7.38;;;19.40;99.90;;;;;;5051519;28;20021;-65
2021/07/16 07:36:38;;;;;;;9.82;6.95;;;19.40;99.90;;;;;;5049888;28;20112;-65
2021/07/16 07:39:04;;;;;;;8.13;6.68;;;19.50;99.90;;;;;;5051802;28;20538;-64
2021/07/16 07:41:30;;;;;;;6.85;6.25;;;19.60;99.90;;;;;;5049892;28;20021;-65
2021/07/16 07:43:56;;;;;;;7.40;6.70;;;19.80;99.90;;;;;;5051806;28;20382;-64
2021/07/16 07:46:23;;;;;;;6.22;5.72;;;20.00;99.90;;;;;;5050783;28;20025;-65
2021/07/16 07:48:49;;;;;;;8.50;6.50;;;20.20;99.90;;;;;;5048967;28;20032;-65
2021/07/16 07:51:15;;;;;;;9.13;6.90;;;20.30;99.90;;;;;;5050610;28;20033;-65
2021/07/16 07:53:41;;;;;;;7.70;6.90;;;20.40;99.90;;;;;;5044430;28;20029;-65
2021/07/16 07:56:06;;;;;;;7.88;6.40;;;20.20;99.90;;;;;;5051460;28;20060;-64
2021/07/16 07:58:32;;;;;;;8.40;7.15;;;20.20;99.90;;;;;;5051279;28;20025;-65
2021/07/16 08:00:58;;;;;;;6.75;6.10;;;20.10;99.90;;;;;;5049665;28;20382;-65
2021/07/16 08:03:24;;;;;;;6.18;5.57;;;20.10;99.90;;;;;;5052089;28;20033;-64
2021/07/16 08:05:50;;;;;;;11.45;6.50;;;19.90;99.90;;;;;;5046263;28;20033;-65
2021/07/16 08:08:16;;;;;;;5.93;5.30;;;19.80;99.90;;;;;;5048414;28;20029;-65
2021/07/16 08:10:41;;;;;;;10.55;6.43;;;19.80;99.90;;;;;;5049044;28;20051;-65
2021/07/16 08:13:08;;;;;;;9.15;5.75;;;19.70;99.90;;;;;;5049204;28;20377;-64
2021/07/16 08:15:34;;;;;;;6.97;6.03;;;19.60;99.90;;;;;;5048999;28;20048;-65
2021/07/16 08:18:00;;;;;;;8.77;6.60;;;19.60;99.90;;;;;;5049225;28;20025;-66
2021/07/16 08:20:26;;;;;;;8.00;6.10;;;19.60;99.90;;;;;;5049488;28;20458;-65
2021/07/16 08:22:52;;;;;;;12.93;5.68;;;19.60;99.90;;;;;;5049615;28;20332;-65
2021/07/16 08:25:18;;;;;;;7.63;5.70;;;19.50;99.90;;;;;;5050919;28;20474;-65
2021/07/16 08:27:44;;;;;;;5.53;5.03;;;19.40;99.90;;;;;;5050058;28;20520;-65
2021/07/16 08:30:10;;;;;;;6.93;6.32;;;19.40;99.90;;;;;;5050006;28;20033;-65
2021/07/16 08:32:37;;;;;;;6.80;5.82;;;19.40;99.90;;;;;;5048208;28;20029;-65
2021/07/16 08:35:05;;;;;;;7.85;6.13;;;19.50;99.90;;;;;;5049563;28;20451;-65
2021/07/16 08:37:30;;;;;;;7.15;5.90;;;19.50;99.90;;;;;;5049648;28;20033;-65
2021/07/16 08:39:57;;;;;;;6.80;6.18;;;19.60;99.90;;;;;;5049113;28;20477;-65
2021/07/16 08:42:26;;;;;;;8.73;6.78;;;19.80;99.90;;;;;;5049535;28;20032;-65
2021/07/16 08:44:52;;;;;;;9.80;7.65;;;19.90;99.90;;;;;;5048389;28;20033;-65
2021/07/16 08:47:18;;;;;;;7.05;6.15;;;19.90;99.90;;;;;;5049354;28;20079;-65
2021/07/16 08:49:44;;;;;;;7.15;5.22;;;20.00;99.90;;;;;;5049201;28;20033;-67
2021/07/16 08:52:11;;;;;;;10.88;8.60;;;19.90;99.90;;;;;;5051407;28;20033;-67
2021/07/16 08:54:44;;;;;;;9.43;7.03;;;19.90;99.90;;;;;;5049461;28;20063;-64
2021/07/16 08:57:09;;;;;;;7.78;5.50;;;20.10;99.90;;;;;;5050327;28;20043;-64
2021/07/16 08:59:37;;;;;;;4.68;4.28;;;20.20;99.90;;;;;;5050414;28;20098;-64
2021/07/16 09:02:04;;;;;;;5.68;4.35;;;20.50;99.90;;;;;;5049994;28;20277;-64
2021/07/16 09:04:37;;;;;;;6.18;5.60;;;20.80;99.90;;;;;;5051221;28;20036;-64
2021/07/16 09:07:03;;;;;;;5.55;4.53;;;21.10;99.90;;;;;;5049157;28;20041;-64
2021/07/16 09:09:34;;;;;;;5.70;4.70;;;21.20;99.90;;;;;;5050903;28;20029;-64
2021/07/16 09:12:00;;;;;;;5.93;5.40;;;21.10;99.90;;;;;;5050198;28;20051;-64
2021/07/16 09:14:30;;;;;;;4.20;3.80;;;21.10;99.90;;;;;;5050587;28;20617;-64
2021/07/16 09:17:04;;;;;;;5.47;4.93;;;20.90;99.90;;;;;;5050129;28;20525;-64
2021/07/16 09:19:30;;;;;;;5.82;5.10;;;20.80;99.90;;;;;;5050650;28;20047;-64
2021/07/16 09:22:17;;;;;;;6.22;5.05;;;20.80;99.90;;;;;;5050154;28;20021;-65
2021/07/16 09:25:09;;;;;;;7.50;4.60;;;20.90;99.90;;;;;;5050407;28;20103;-65
2021/07/16 09:27:42;;;;;;;6.63;4.93;;;21.10;99.90;;;;;;5049661;28;20056;-64
2021/07/16 09:30:21;;;;;;;6.90;5.90;;;21.30;99.70;;;;;;5050618;28;20032;-64
2021/07/16 09:32:51;;;;;;;5.45;4.95;;;21.70;97.70;;;;;;5050390;28;20029;-64
2021/07/16 09:35:32;;;;;;;5.20;4.38;;;21.80;98.80;;;;;;5049574;28;20021;-65
2021/07/16 09:38:05;;;;;;;6.25;4.65;;;22.00;97.20;;;;;;5049383;28;20117;-65
2021/07/16 09:40:33;;;;;;;5.05;4.55;;;22.20;97.00;;;;;;5054407;28;20371;-65
2021/07/16 09:43:00;;;;;;;3.90;3.60;;;22.30;95.50;;;;;;5053908;28;20075;-65
2021/07/16 09:45:26;;;;;;;5.97;4.25;;;22.50;95.90;;;;;;5054038;28;20056;-65
2021/07/16 09:47:51;;;;;;;5.13;4.00;;;23.00;92.30;;;;;;5053538;28;20072;-70
2021/07/16 09:50:20;;;;;;;5.25;4.28;;;23.10;91.50;;;;;;5053900;28;20024;-65
2021/07/16 09:52:46;;;;;;;4.65;4.07;;;23.30;91.60;;;;;;5052793;28;20481;-66
2021/07/16 09:55:21;;;;;;;5.97;3.60;;;23.50;89.60;;;;;;5052964;28;20053;-65
2021/07/16 09:57:49;;;;;;;6.78;3.90;;;23.40;90.00;;;;;;5053105;28;20031;-65
2021/07/16 10:00:15;;;;;;;6.05;4.10;;;23.10;90.70;;;;;;5054288;28;20033;-65
2021/07/16 10:02:46;;;;;;;4.50;4.10;;;22.90;91.30;;;;;;5053135;28;20528;-65
2021/07/16 10:05:12;;;;;;;4.00;3.65;;;22.70;91.20;;;;;;5054472;28;20033;-65
2021/07/16 10:07:39;;;;;;;4.50;3.03;;;22.70;91.40;;;;;;5053779;28;20335;-65
2021/07/16 10:10:06;;;;;;;2.97;2.60;;;22.70;91.40;;;;;;5053621;28;20100;-65
2021/07/16 10:12:32;;;;;;;4.13;2.70;;;23.00;91.30;;;;;;5054046;28;20037;-65
2021/07/16 10:14:58;;;;;;;7.93;2.40;;;23.20;89.10;;;;;;5052709;28;20029;-65
2021/07/16 10:17:24;;;;;;;4.72;2.75;;;23.60;86.40;;;;;;5053782;28;20041;-65
2021/07/16 10:19:50;;;;;;;3.42;3.13;;;23.80;83.00;;;;;;5053256;28;20032;-65
2021/07/16 10:22:17;;;;;;;4.75;2.80;;;23.80;84.60;;;;;;5053778;28;20389;-65
2021/07/16 10:24:44;;;;;;;4.70;2.60;;;23.90;83.90;;;;;;5053813;28;20420;-65
2021/07/16 10:27:12;;;;;;;2.85;1.70;;;23.90;82.70;;;;;;5052864;28;20044;-65
2021/07/16 10:29:45;;;;;;;1.98;1.60;;;24.10;79.00;;;;;;5054068;28;20025;-65
2021/07/16 10:32:11;;;;;;;3.22;2.53;;;24.10;77.30;;;;;;5053529;28;20071;-65
2021/07/16 10:34:40;;;;;;;2.65;2.15;;;24.20;78.60;;;;;;5053858;28;20029;-65
2021/07/16 10:37:15;;;;;;;2.75;2.55;;;24.20;80.70;;;;;;5052415;28;20037;-65
2021/07/16 10:39:45;;;;;;;2.42;2.22;;;24.30;80.20;;;;;;5053312;28;20455;-65
2021/07/16 10:42:25;;;;;;;3.22;1.83;;;24.40;78.30;;;;;;5053066;28;20466;-66
2021/07/16 10:44:58;;;;;;;1.65;1.55;;;24.20;76.40;;;;;;5052588;28;20025;-66
2021/07/16 10:47:37;;;;;;;3.47;1.83;;;24.40;77.40;;;;;;5053783;28;20032;-66
2021/07/16 10:50:07;;;;;;;1.90;1.80;;;24.60;74.70;;;;;;5051860;28;20025;-66
2021/07/16 10:52:45;;;;;;;2.47;1.50;;;24.60;75.30;;;;;;5052863;28;20158;-66
2021/07/16 10:55:13;;;;;;;3.20;1.90;;;24.60;77.00;;;;;;5052389;28;20098;-66
2021/07/16 10:57:44;;;;;;;2.00;1.90;;;24.80;75.20;;;;;;5053118;28;20542;-64
2021/07/16 11:00:36;;;;;;;1.80;1.70;;;24.90;74.90;;;;;;5052589;28;20040;-66
2021/07/16 11:03:12;;;;;;;1.30;1.30;;;25.20;74.00;;;;;;5051839;28;20039;-64
2021/07/16 11:05:44;;;;;;;1.20;1.10;;;25.50;72.80;;;;;;5053231;28;20025;-64
2021/07/16 11:08:35;;;;;;;2.83;1.38;;;25.60;69.10;;;;;;5052255;28;20033;-65
2021/07/16 11:11:07;;;;;;;1.60;1.50;;;25.70;69.60;;;;;;5044618;28;20028;-65
2021/07/16 11:13:44;;;;;;;2.55;1.40;;;25.70;68.80;;;;;;5052652;28;20029;-65
2021/07/16 11:16:15;;;;;;;1.40;1.25;;;25.80;70.10;;;;;;5052177;28;20037;-65
2021/07/16 11:18:54;;;;;;;1.80;1.70;;;26.10;68.30;;;;;;5052791;28;20032;-65
2021/07/16 11:21:46;;;;;;;1.70;1.60;;;25.80;68.70;;;;;;5052664;28;20109;-65
2021/07/16 11:24:21;;;;;;;4.80;1.60;;;25.10;69.20;;;;;;5051348;28;20057;-65
2021/07/16 11:26:54;;;;;;;3.63;1.45;;;25.00;71.30;;;;;;5051880;28;20071;-66
2021/07/16 11:29:22;;;;;;;1.83;1.40;;;25.10;70.60;;;;;;5052696;28;20545;-65
2021/07/16 11:31:59;;;;;;;1.40;1.30;;;25.30;71.80;;;;;;5051794;28;20107;-65
2021/07/16 11:34:25;;;;;;;3.33;1.20;;;25.10;69.70;;;;;;5044941;28;20060;-65
2021/07/16 11:36:52;;;;;;;1.42;1.33;;;24.90;72.20;;;;;;5051212;28;20103;-66
2021/07/16 11:39:36;;;;;;;4.43;1.40;;;24.70;70.80;;;;;;5051833;28;20033;-66
2021/07/16 11:42:04;;;;;;;4.10;1.33;;;24.20;71.70;;;;;;5051479;28;20086;-66
2021/07/16 11:44:35;;;;;;;1.98;1.23;;;24.10;73.00;;;;;;5051367;28;20031;-66
2021/07/16 11:47:19;;;;;;;1.27;1.15;;;24.30;73.80;;;;;;5051576;28;20466;-66
2021/07/16 11:49:47;;;;;;;1.10;0.93;;;24.70;71.90;;;;;;5045331;28;20465;-66
2021/07/16 11:52:19;;;;;;;2.50;1.20;;;24.90;72.00;;;;;;5052131;28;20036;-66
2021/07/16 11:54:45;;;;;;;3.60;1.08;;;25.20;69.70;;;;;;5051860;28;20470;-66
2021/07/16 11:57:14;;;;;;;0.80;0.80;;;25.50;70.90;;;;;;5051000;28;20041;-63
2021/07/16 11:59:47;;;;;;;1.35;0.80;;;25.80;66.40;;;;;;5051826;28;20040;-65
2021/07/16 12:02:16;;;;;;;0.80;0.80;;;25.80;65.00;;;;;;5051834;28;20104;-66
2021/07/16 12:04:43;;;;;;;1.55;1.13;;;25.80;64.60;;;;;;5051356;28;20466;-66
2021/07/16 12:07:10;;;;;;;1.35;1.25;;;25.90;65.40;;;;;;5051414;28;20285;-66
2021/07/16 12:09:39;;;;;;;2.15;1.10;;;25.80;65.00;;;;;;5051470;28;20050;-66
2021/07/16 12:12:12;;;;;;;1.40;1.17;;;25.50;66.10;;;;;;5049742;28;20858;-66
2021/07/16 12:14:49;;;;;;;1.58;1.38;;;25.30;66.90;;;;;;5051697;28;20024;-66
2021/07/16 12:17:21;;;;;;;0.93;0.93;;;25.20;68.30;;;;;;5051373;28;20048;-66
2021/07/16 12:19:47;;;;;;;1.33;0.90;;;25.30;67.90;;;;;;5051895;28;20025;-67
2021/07/16 12:22:14;;;;;;;1.50;1.40;;;25.60;66.70;;;;;;5051256;28;20025;-66
2021/07/16 12:24:41;;;;;;;1.40;1.30;;;25.90;66.10;;;;;;5051017;28;20025;-66
2021/07/16 12:27:12;;;;;;;2.72;1.42;;;25.90;66.10;;;;;;5050782;28;20094;-65
2021/07/16 12:29:39;;;;;;;1.27;1.17;;;26.00;66.40;;;;;;5051215;28;20474;-66
2021/07/16 12:32:06;;;;;;;1.38;1.27;;;26.30;66.50;;;;;;5050913;28;20029;-66
2021/07/16 12:34:32;;;;;;;3.47;1.40;;;26.20;65.80;;;;;;5051182;28;20029;-65
2021/07/16 12:37:18;;;;;;;1.50;0.95;;;26.00;66.80;;;;;;5050805;28;20037;-66
2021/07/16 12:39:45;;;;;;;2.25;1.55;;;25.60;68.30;;;;;;5050471;28;20029;-66
2021/07/16 12:42:18;;;;;;;3.10;1.67;;;25.30;69.00;;;;;;5050850;28;20058;-66
2021/07/16 12:45:09;;;;;;;1.40;1.30;;;25.00;68.60;;;;;;5051429;28;20067;-66
2021/07/16 12:47:47;;;;;;;1.70;1.60;;;24.60;70.60;;;;;;5044181;28;20025;-66
2021/07/16 12:50:16;;;;;;;2.25;1.48;;;24.30;70.40;;;;;;5050809;28;20033;-66